sensor_id;sensor_type;location;lat;lon;timestamp;P1;durP1;ratioP1;P2;durP2;ratioP2
2404;SDS011;1213;43.206;27.922;2023-03-31T00:00:43;8.63;;;5.87;;
2404;SDS011;1213;43.206;27.922;2023-03-31T00:03:08;3.73;;;2.93;;
2404;SDS011;1213;43.206;27.922;2023-03-31T00:05:37;5.03;;;4.00;;
2404;SDS011;1213;43.206;27.922;2023-03-31T00:08:03;3.40;;;2.50;;
2404;SDS011;1213;43.206;27.922;2023-03-31T00:10:29;4.03;;;2.70;;
2404;SDS011;1213;43.206;27.922;2023-03-31T00:12:56;2.60;;;2.40;;
2404;SDS011;1213;43.206;27.922;2023-03-31T00:15:21;7.93;;;3.97;;
2404;SDS011;1213;43.206;27.922;2023-03-31T00:17:47;4.30;;;2.07;;
2404;SDS011;1213;43.206;27.922;2023-03-31T00:20:12;3.17;;;2.97;;
2404;SDS011;1213;43.206;27.922;2023-03-31T00:22:38;4.30;;;2.80;;
2404;SDS011;1213;43.206;27.922;2023-03-31T00:25:07;3.23;;;2.93;;
2404;SDS011;1213;43.206;27.922;2023-03-31T00:27:32;3.03;;;2.40;;
2404;SDS011;1213;43.206;27.922;2023-03-31T00:29:57;2.93;;;2.30;;
2404;SDS011;1213;43.206;27.922;2023-03-31T00:32:23;12.63;;;2.70;;
2404;SDS011;1213;43.206;27.922;2023-03-31T00:34:48;3.63;;;2.93;;
2404;SDS011;1213;43.206;27.922;2023-03-31T00:37:13;6.03;;;3.53;;
2404;SDS011;1213;43.206;27.922;2023-03-31T00:39:40;4.10;;;2.57;;
2404;SDS011;1213;43.206;27.922;2023-03-31T00:42:05;3.23;;;2.83;;
2404;SDS011;1213;43.206;27.922;2023-03-31T00:44:34;5.00;;;3.73;;
2404;SDS011;1213;43.206;27.922;2023-03-31T00:49:28;6.37;;;4.27;;
2404;SDS011;1213;43.206;27.922;2023-03-31T00:51:56;10.30;;;5.10;;
2404;SDS011;1213;43.206;27.922;2023-03-31T00:54:23;7.20;;;4.57;;
2404;SDS011;1213;43.206;27.922;2023-03-31T00:56:50;9.57;;;6.73;;
2404;SDS011;1213;43.206;27.922;2023-03-31T00:59:17;9.47;;;5.60;;
2404;SDS011;1213;43.206;27.922;2023-03-31T01:01:43;13.07;;;6.80;;
2404;SDS011;1213;43.206;27.922;2023-03-31T01:04:10;8.33;;;6.83;;
2404;SDS011;1213;43.206;27.922;2023-03-31T01:06:37;12.93;;;7.60;;
2404;SDS011;1213;43.206;27.922;2023-03-31T01:09:06;10.83;;;7.67;;
2404;SDS011;1213;43.206;27.922;2023-03-31T01:11:31;11.20;;;7.90;;
2404;SDS011;1213;43.206;27.922;2023-03-31T01:13:58;19.23;;;9.43;;
2404;SDS011;1213;43.206;27.922;2023-03-31T01:16:23;10.00;;;8.13;;
2404;SDS011;1213;43.206;27.922;2023-03-31T01:18:48;12.17;;;8.80;;
2404;SDS011;1213;43.206;27.922;2023-03-31T01:39:41;13.27;;;9.10;;
2404;SDS011;1213;43.206;27.922;2023-03-31T01:52:02;23.67;;;9.50;;
2404;SDS011;1213;43.206;27.922;2023-03-31T01:54:31;11.97;;;8.50;;
2404;SDS011;1213;43.206;27.922;2023-03-31T01:57:03;17.00;;;8.90;;
2404;SDS011;1213;43.206;27.922;2023-03-31T01:59:34;11.10;;;8.30;;
2404;SDS011;1213;43.206;27.922;2023-03-31T02:02:01;17.00;;;8.40;;
2404;SDS011;1213;43.206;27.922;2023-03-31T02:04:31;12.00;;;8.10;;
2404;SDS011;1213;43.206;27.922;2023-03-31T02:07:18;14.67;;;7.37;;
2404;SDS011;1213;43.206;27.922;2023-03-31T02:09:46;17.73;;;7.80;;
2404;SDS011;1213;43.206;27.922;2023-03-31T02:12:12;9.70;;;5.97;;
2404;SDS011;1213;43.206;27.922;2023-03-31T02:14:38;6.70;;;4.63;;
2404;SDS011;1213;43.206;27.922;2023-03-31T02:17:05;8.67;;;5.53;;
2404;SDS011;1213;43.206;27.922;2023-03-31T02:19:33;14.23;;;6.40;;
2404;SDS011;1213;43.206;27.922;2023-03-31T02:22:00;4.53;;;3.43;;
2404;SDS011;1213;43.206;27.922;2023-03-31T02:24:27;5.20;;;4.67;;
2404;SDS011;1213;43.206;27.922;2023-03-31T02:29:29;3.17;;;2.70;;
2404;SDS011;1213;43.206;27.922;2023-03-31T02:32:00;6.30;;;4.13;;
2404;SDS011;1213;43.206;27.922;2023-03-31T02:34:26;8.00;;;3.97;;
2404;SDS011;1213;43.206;27.922;2023-03-31T02:36:52;11.53;;;3.87;;
2404;SDS011;1213;43.206;27.922;2023-03-31T02:39:22;10.97;;;5.13;;
2404;SDS011;1213;43.206;27.922;2023-03-31T02:41:49;10.40;;;5.97;;
2404;SDS011;1213;43.206;27.922;2023-03-31T02:44:14;11.70;;;5.97;;
2404;SDS011;1213;43.206;27.922;2023-03-31T02:46:41;7.23;;;5.23;;
2404;SDS011;1213;43.206;27.922;2023-03-31T02:49:07;8.17;;;5.47;;
2404;SDS011;1213;43.206;27.922;2023-03-31T02:54:31;3.13;;;2.57;;
2404;SDS011;1213;43.206;27.922;2023-03-31T03:02:31;2.23;;;2.03;;
2404;SDS011;1213;43.206;27.922;2023-03-31T03:07:35;2.70;;;2.50;;
2404;SDS011;1213;43.206;27.922;2023-03-31T03:15:29;7.70;;;3.10;;
2404;SDS011;1213;43.206;27.922;2023-03-31T03:17:56;9.43;;;3.13;;
2404;SDS011;1213;43.206;27.922;2023-03-31T03:20:22;3.17;;;2.63;;
2404;SDS011;1213;43.206;27.922;2023-03-31T03:22:47;5.17;;;2.90;;
2404;SDS011;1213;43.206;27.922;2023-03-31T03:25:13;3.47;;;2.87;;
2404;SDS011;1213;43.206;27.922;2023-03-31T03:27:38;14.67;;;3.17;;
2404;SDS011;1213;43.206;27.922;2023-03-31T03:30:05;3.73;;;3.33;;
2404;SDS011;1213;43.206;27.922;2023-03-31T03:32:31;4.30;;;3.77;;
2404;SDS011;1213;43.206;27.922;2023-03-31T03:34:58;6.33;;;3.03;;
2404;SDS011;1213;43.206;27.922;2023-03-31T03:37:23;6.17;;;4.07;;
2404;SDS011;1213;43.206;27.922;2023-03-31T03:39:48;4.63;;;3.00;;
2404;SDS011;1213;43.206;27.922;2023-03-31T03:42:14;6.10;;;3.73;;
2404;SDS011;1213;43.206;27.922;2023-03-31T03:44:39;7.90;;;3.80;;
2404;SDS011;1213;43.206;27.922;2023-03-31T03:47:05;8.10;;;4.73;;
2404;SDS011;1213;43.206;27.922;2023-03-31T03:49:30;4.40;;;3.67;;
2404;SDS011;1213;43.206;27.922;2023-03-31T03:51:55;3.80;;;3.27;;
2404;SDS011;1213;43.206;27.922;2023-03-31T03:54:21;8.43;;;3.50;;
2404;SDS011;1213;43.206;27.922;2023-03-31T03:56:46;4.83;;;3.97;;
2404;SDS011;1213;43.206;27.922;2023-03-31T03:59:11;4.30;;;3.53;;
2404;SDS011;1213;43.206;27.922;2023-03-31T04:01:37;3.17;;;2.87;;
2404;SDS011;1213;43.206;27.922;2023-03-31T04:04:02;5.10;;;3.40;;
2404;SDS011;1213;43.206;27.922;2023-03-31T04:06:28;6.23;;;4.57;;
2404;SDS011;1213;43.206;27.922;2023-03-31T04:08:53;7.57;;;3.83;;
2404;SDS011;1213;43.206;27.922;2023-03-31T04:11:18;7.37;;;4.27;;
2404;SDS011;1213;43.206;27.922;2023-03-31T04:13:44;5.50;;;3.87;;
2404;SDS011;1213;43.206;27.922;2023-03-31T04:16:10;14.33;;;7.90;;
2404;SDS011;1213;43.206;27.922;2023-03-31T04:18:35;14.77;;;7.27;;
2404;SDS011;1213;43.206;27.922;2023-03-31T04:21:06;13.30;;;6.00;;
2404;SDS011;1213;43.206;27.922;2023-03-31T04:23:36;9.90;;;4.33;;
2404;SDS011;1213;43.206;27.922;2023-03-31T04:26:02;8.50;;;6.70;;
2404;SDS011;1213;43.206;27.922;2023-03-31T04:28:33;10.80;;;5.17;;
2404;SDS011;1213;43.206;27.922;2023-03-31T04:30:59;11.67;;;5.30;;
2404;SDS011;1213;43.206;27.922;2023-03-31T04:33:24;13.60;;;5.77;;
2404;SDS011;1213;43.206;27.922;2023-03-31T04:35:49;31.57;;;7.47;;
2404;SDS011;1213;43.206;27.922;2023-03-31T04:38:17;11.57;;;7.20;;
2404;SDS011;1213;43.206;27.922;2023-03-31T04:40:43;12.20;;;8.47;;
2404;SDS011;1213;43.206;27.922;2023-03-31T04:43:08;18.07;;;9.07;;
2404;SDS011;1213;43.206;27.922;2023-03-31T04:45:34;16.13;;;12.60;;
2404;SDS011;1213;43.206;27.922;2023-03-31T04:47:59;24.77;;;10.40;;
2404;SDS011;1213;43.206;27.922;2023-03-31T04:50:25;26.33;;;11.37;;
2404;SDS011;1213;43.206;27.922;2023-03-31T04:52:50;18.17;;;12.30;;
2404;SDS011;1213;43.206;27.922;2023-03-31T04:55:15;15.57;;;10.90;;
2404;SDS011;1213;43.206;27.922;2023-03-31T04:57:40;19.33;;;10.77;;
2404;SDS011;1213;43.206;27.922;2023-03-31T05:00:06;23.20;;;12.17;;
2404;SDS011;1213;43.206;27.922;2023-03-31T05:02:32;19.13;;;11.00;;
2404;SDS011;1213;43.206;27.922;2023-03-31T05:04:57;21.33;;;13.80;;
2404;SDS011;1213;43.206;27.922;2023-03-31T05:07:22;20.47;;;12.80;;
2404;SDS011;1213;43.206;27.922;2023-03-31T05:09:47;30.30;;;15.10;;
2404;SDS011;1213;43.206;27.922;2023-03-31T05:12:13;27.07;;;15.33;;
2404;SDS011;1213;43.206;27.922;2023-03-31T05:14:38;23.17;;;13.77;;
2404;SDS011;1213;43.206;27.922;2023-03-31T05:17:03;22.77;;;12.13;;
2404;SDS011;1213;43.206;27.922;2023-03-31T05:19:28;19.77;;;12.70;;
2404;SDS011;1213;43.206;27.922;2023-03-31T05:21:54;25.70;;;12.90;;
2404;SDS011;1213;43.206;27.922;2023-03-31T05:24:19;21.13;;;11.97;;
2404;SDS011;1213;43.206;27.922;2023-03-31T05:26:45;19.33;;;10.47;;
2404;SDS011;1213;43.206;27.922;2023-03-31T05:29:16;20.13;;;11.37;;
2404;SDS011;1213;43.206;27.922;2023-03-31T05:31:41;18.83;;;11.20;;
2404;SDS011;1213;43.206;27.922;2023-03-31T05:34:06;21.87;;;11.33;;
2404;SDS011;1213;43.206;27.922;2023-03-31T05:36:32;17.50;;;10.80;;
2404;SDS011;1213;43.206;27.922;2023-03-31T05:38:57;25.83;;;13.63;;
2404;SDS011;1213;43.206;27.922;2023-03-31T05:41:22;19.57;;;13.07;;
2404;SDS011;1213;43.206;27.922;2023-03-31T05:43:48;23.83;;;12.80;;
2404;SDS011;1213;43.206;27.922;2023-03-31T05:46:13;20.77;;;12.00;;
2404;SDS011;1213;43.206;27.922;2023-03-31T05:48:38;29.33;;;18.70;;
2404;SDS011;1213;43.206;27.922;2023-03-31T05:51:04;20.83;;;12.50;;
2404;SDS011;1213;43.206;27.922;2023-03-31T05:53:30;17.80;;;12.80;;
2404;SDS011;1213;43.206;27.922;2023-03-31T05:55:56;28.57;;;16.43;;
2404;SDS011;1213;43.206;27.922;2023-03-31T05:58:22;28.80;;;17.77;;
2404;SDS011;1213;43.206;27.922;2023-03-31T06:00:47;19.50;;;12.57;;
2404;SDS011;1213;43.206;27.922;2023-03-31T06:03:13;29.63;;;13.43;;
2404;SDS011;1213;43.206;27.922;2023-03-31T06:05:38;22.33;;;12.07;;
2404;SDS011;1213;43.206;27.922;2023-03-31T06:08:05;21.50;;;11.70;;
2404;SDS011;1213;43.206;27.922;2023-03-31T06:10:31;26.17;;;16.60;;
2404;SDS011;1213;43.206;27.922;2023-03-31T06:12:57;28.30;;;13.57;;
2404;SDS011;1213;43.206;27.922;2023-03-31T06:15:22;24.90;;;14.67;;
2404;SDS011;1213;43.206;27.922;2023-03-31T06:17:47;26.33;;;15.47;;
2404;SDS011;1213;43.206;27.922;2023-03-31T06:20:12;21.00;;;12.77;;
2404;SDS011;1213;43.206;27.922;2023-03-31T06:22:38;20.50;;;12.10;;
2404;SDS011;1213;43.206;27.922;2023-03-31T06:25:03;18.00;;;12.60;;
2404;SDS011;1213;43.206;27.922;2023-03-31T06:27:28;20.43;;;12.13;;
2404;SDS011;1213;43.206;27.922;2023-03-31T06:29:54;23.50;;;13.23;;
2404;SDS011;1213;43.206;27.922;2023-03-31T06:32:20;33.30;;;13.47;;
2404;SDS011;1213;43.206;27.922;2023-03-31T06:34:45;20.53;;;14.77;;
2404;SDS011;1213;43.206;27.922;2023-03-31T06:37:10;27.70;;;13.50;;
2404;SDS011;1213;43.206;27.922;2023-03-31T06:39:36;27.43;;;14.07;;
2404;SDS011;1213;43.206;27.922;2023-03-31T06:42:01;27.80;;;14.43;;
2404;SDS011;1213;43.206;27.922;2023-03-31T06:44:26;23.60;;;14.93;;
2404;SDS011;1213;43.206;27.922;2023-03-31T06:46:51;28.73;;;16.40;;
2404;SDS011;1213;43.206;27.922;2023-03-31T06:49:17;24.20;;;15.17;;
2404;SDS011;1213;43.206;27.922;2023-03-31T06:51:42;29.10;;;14.90;;
2404;SDS011;1213;43.206;27.922;2023-03-31T06:54:07;29.40;;;16.73;;
2404;SDS011;1213;43.206;27.922;2023-03-31T06:56:33;20.73;;;14.43;;
2404;SDS011;1213;43.206;27.922;2023-03-31T06:58:58;28.30;;;14.17;;
2404;SDS011;1213;43.206;27.922;2023-03-31T07:01:23;29.20;;;14.87;;
2404;SDS011;1213;43.206;27.922;2023-03-31T07:03:49;25.93;;;12.37;;
2404;SDS011;1213;43.206;27.922;2023-03-31T07:06:14;22.90;;;12.87;;
2404;SDS011;1213;43.206;27.922;2023-03-31T07:08:39;19.53;;;11.33;;
2404;SDS011;1213;43.206;27.922;2023-03-31T07:11:04;29.70;;;14.30;;
2404;SDS011;1213;43.206;27.922;2023-03-31T07:13:30;22.03;;;11.77;;
2404;SDS011;1213;43.206;27.922;2023-03-31T07:15:55;19.00;;;9.80;;
2404;SDS011;1213;43.206;27.922;2023-03-31T07:18:20;21.57;;;10.63;;
2404;SDS011;1213;43.206;27.922;2023-03-31T07:20:49;17.07;;;10.50;;
2404;SDS011;1213;43.206;27.922;2023-03-31T07:23:15;21.13;;;10.07;;
2404;SDS011;1213;43.206;27.922;2023-03-31T07:25:41;24.13;;;11.63;;
2404;SDS011;1213;43.206;27.922;2023-03-31T07:28:06;22.27;;;10.40;;
2404;SDS011;1213;43.206;27.922;2023-03-31T07:30:31;30.93;;;14.00;;
2404;SDS011;1213;43.206;27.922;2023-03-31T07:32:57;23.90;;;12.20;;
2404;SDS011;1213;43.206;27.922;2023-03-31T07:35:22;22.63;;;11.13;;
2404;SDS011;1213;43.206;27.922;2023-03-31T07:37:48;20.27;;;13.13;;
2404;SDS011;1213;43.206;27.922;2023-03-31T07:40:18;22.47;;;10.57;;
2404;SDS011;1213;43.206;27.922;2023-03-31T07:42:43;14.70;;;9.23;;
2404;SDS011;1213;43.206;27.922;2023-03-31T07:45:11;13.73;;;7.47;;
2404;SDS011;1213;43.206;27.922;2023-03-31T07:47:36;12.83;;;6.77;;
2404;SDS011;1213;43.206;27.922;2023-03-31T07:50:03;9.87;;;6.47;;
2404;SDS011;1213;43.206;27.922;2023-03-31T07:52:28;10.20;;;5.67;;
2404;SDS011;1213;43.206;27.922;2023-03-31T07:54:54;6.90;;;4.83;;
2404;SDS011;1213;43.206;27.922;2023-03-31T07:57:20;4.20;;;3.80;;
2404;SDS011;1213;43.206;27.922;2023-03-31T07:59:46;8.30;;;4.33;;
2404;SDS011;1213;43.206;27.922;2023-03-31T08:02:11;8.43;;;5.10;;
2404;SDS011;1213;43.206;27.922;2023-03-31T08:04:37;10.40;;;4.90;;
2404;SDS011;1213;43.206;27.922;2023-03-31T08:07:03;11.53;;;7.47;;
2404;SDS011;1213;43.206;27.922;2023-03-31T08:09:28;6.77;;;4.80;;
2404;SDS011;1213;43.206;27.922;2023-03-31T08:11:54;3.10;;;2.80;;
2404;SDS011;1213;43.206;27.922;2023-03-31T08:14:19;5.70;;;5.10;;
2404;SDS011;1213;43.206;27.922;2023-03-31T08:16:45;5.53;;;3.70;;
2404;SDS011;1213;43.206;27.922;2023-03-31T08:19:10;7.83;;;5.10;;
2404;SDS011;1213;43.206;27.922;2023-03-31T08:21:35;6.30;;;4.90;;
2404;SDS011;1213;43.206;27.922;2023-03-31T08:24:00;9.00;;;5.87;;
2404;SDS011;1213;43.206;27.922;2023-03-31T08:26:26;10.97;;;7.30;;
2404;SDS011;1213;43.206;27.922;2023-03-31T08:28:52;15.05;;;8.75;;
2404;SDS011;1213;43.206;27.922;2023-03-31T08:31:18;15.10;;;10.00;;
2404;SDS011;1213;43.206;27.922;2023-03-31T08:33:44;16.33;;;9.73;;
2404;SDS011;1213;43.206;27.922;2023-03-31T08:36:10;13.60;;;9.27;;
2404;SDS011;1213;43.206;27.922;2023-03-31T08:38:35;9.73;;;6.73;;
2404;SDS011;1213;43.206;27.922;2023-03-31T08:41:02;7.97;;;6.00;;
2404;SDS011;1213;43.206;27.922;2023-03-31T08:43:29;18.57;;;6.97;;
2404;SDS011;1213;43.206;27.922;2023-03-31T08:45:55;24.47;;;9.47;;
2404;SDS011;1213;43.206;27.922;2023-03-31T08:48:25;14.80;;;8.57;;
2404;SDS011;1213;43.206;27.922;2023-03-31T08:51:14;7.33;;;5.13;;
2404;SDS011;1213;43.206;27.922;2023-03-31T08:53:43;13.70;;;8.63;;
2404;SDS011;1213;43.206;27.922;2023-03-31T08:56:15;8.00;;;4.50;;
2404;SDS011;1213;43.206;27.922;2023-03-31T08:58:45;20.90;;;10.00;;
2404;SDS011;1213;43.206;27.922;2023-03-31T09:06:20;19.33;;;8.90;;
2404;SDS011;1213;43.206;27.922;2023-03-31T09:08:46;6.00;;;4.27;;
2404;SDS011;1213;43.206;27.922;2023-03-31T09:16:13;24.17;;;13.10;;
2404;SDS011;1213;43.206;27.922;2023-03-31T09:18:39;13.93;;;8.60;;
2404;SDS011;1213;43.206;27.922;2023-03-31T09:23:39;16.83;;;8.80;;
2404;SDS011;1213;43.206;27.922;2023-03-31T09:26:10;14.07;;;5.87;;
2404;SDS011;1213;43.206;27.922;2023-03-31T09:28:37;10.73;;;8.23;;
2404;SDS011;1213;43.206;27.922;2023-03-31T09:31:06;5.73;;;5.10;;
2404;SDS011;1213;43.206;27.922;2023-03-31T09:33:32;9.23;;;6.83;;
2404;SDS011;1213;43.206;27.922;2023-03-31T09:36:00;9.27;;;5.37;;
2404;SDS011;1213;43.206;27.922;2023-03-31T09:38:29;12.53;;;8.00;;
2404;SDS011;1213;43.206;27.922;2023-03-31T09:40:58;6.20;;;5.20;;
2404;SDS011;1213;43.206;27.922;2023-03-31T09:43:26;10.60;;;8.03;;
2404;SDS011;1213;43.206;27.922;2023-03-31T09:45:52;16.53;;;8.47;;
2404;SDS011;1213;43.206;27.922;2023-03-31T09:48:19;19.13;;;9.60;;
2404;SDS011;1213;43.206;27.922;2023-03-31T09:50:46;13.80;;;7.10;;
2404;SDS011;1213;43.206;27.922;2023-03-31T09:53:31;13.10;;;9.10;;
2404;SDS011;1213;43.206;27.922;2023-03-31T09:56:02;15.60;;;10.90;;
2404;SDS011;1213;43.206;27.922;2023-03-31T09:58:28;16.23;;;10.00;;
2404;SDS011;1213;43.206;27.922;2023-03-31T10:00:57;10.20;;;8.40;;
2404;SDS011;1213;43.206;27.922;2023-03-31T10:03:23;14.40;;;7.87;;
2404;SDS011;1213;43.206;27.922;2023-03-31T10:05:53;10.60;;;6.47;;
2404;SDS011;1213;43.206;27.922;2023-03-31T10:08:20;10.20;;;7.20;;
2404;SDS011;1213;43.206;27.922;2023-03-31T10:10:50;16.40;;;9.07;;
2404;SDS011;1213;43.206;27.922;2023-03-31T10:13:19;15.17;;;9.13;;
2404;SDS011;1213;43.206;27.922;2023-03-31T10:15:46;14.80;;;8.87;;
2404;SDS011;1213;43.206;27.922;2023-03-31T10:18:16;8.27;;;5.57;;
2404;SDS011;1213;43.206;27.922;2023-03-31T10:20:43;12.90;;;8.10;;
2404;SDS011;1213;43.206;27.922;2023-03-31T10:23:28;14.20;;;8.77;;
2404;SDS011;1213;43.206;27.922;2023-03-31T10:25:54;11.40;;;7.07;;
2404;SDS011;1213;43.206;27.922;2023-03-31T10:28:20;18.73;;;9.13;;
2404;SDS011;1213;43.206;27.922;2023-03-31T10:30:46;16.07;;;11.97;;
2404;SDS011;1213;43.206;27.922;2023-03-31T10:33:14;10.83;;;8.97;;
2404;SDS011;1213;43.206;27.922;2023-03-31T10:35:41;10.27;;;7.37;;
2404;SDS011;1213;43.206;27.922;2023-03-31T10:38:09;11.67;;;8.13;;
2404;SDS011;1213;43.206;27.922;2023-03-31T10:40:36;10.73;;;8.30;;
2404;SDS011;1213;43.206;27.922;2023-03-31T10:43:14;16.03;;;9.03;;
2404;SDS011;1213;43.206;27.922;2023-03-31T10:45:50;16.75;;;10.23;;
2404;SDS011;1213;43.206;27.922;2023-03-31T10:48:17;13.00;;;10.77;;
2404;SDS011;1213;43.206;27.922;2023-03-31T10:50:43;14.67;;;9.67;;
2404;SDS011;1213;43.206;27.922;2023-03-31T10:53:12;12.40;;;9.40;;
2404;SDS011;1213;43.206;27.922;2023-03-31T10:55:39;14.47;;;9.70;;
2404;SDS011;1213;43.206;27.922;2023-03-31T10:58:27;18.93;;;9.00;;
2404;SDS011;1213;43.206;27.922;2023-03-31T11:01:17;20.63;;;11.57;;
2404;SDS011;1213;43.206;27.922;2023-03-31T11:04:00;14.07;;;8.57;;
2404;SDS011;1213;43.206;27.922;2023-03-31T11:06:37;12.83;;;8.87;;
2404;SDS011;1213;43.206;27.922;2023-03-31T11:37:36;15.93;;;12.40;;
2404;SDS011;1213;43.206;27.922;2023-03-31T11:47:45;17.38;;;11.70;;
2404;SDS011;1213;43.206;27.922;2023-03-31T11:50:15;11.67;;;8.30;;
2404;SDS011;1213;43.206;27.922;2023-03-31T11:52:42;10.57;;;7.60;;
2404;SDS011;1213;43.206;27.922;2023-03-31T11:55:14;8.43;;;6.77;;
2404;SDS011;1213;43.206;27.922;2023-03-31T11:57:41;7.70;;;5.50;;
2404;SDS011;1213;43.206;27.922;2023-03-31T12:00:16;7.30;;;5.83;;
2404;SDS011;1213;43.206;27.922;2023-03-31T12:02:48;5.97;;;5.37;;
2404;SDS011;1213;43.206;27.922;2023-03-31T12:05:15;16.80;;;11.57;;
2404;SDS011;1213;43.206;27.922;2023-03-31T12:12:41;7.70;;;5.63;;
2404;SDS011;1213;43.206;27.922;2023-03-31T12:17:36;5.87;;;5.30;;
2404;SDS011;1213;43.206;27.922;2023-03-31T12:20:10;5.60;;;4.90;;
2404;SDS011;1213;43.206;27.922;2023-03-31T12:22:46;5.90;;;5.30;;
2404;SDS011;1213;43.206;27.922;2023-03-31T12:25:13;7.37;;;5.47;;
2404;SDS011;1213;43.206;27.922;2023-03-31T12:27:39;6.27;;;4.70;;
2404;SDS011;1213;43.206;27.922;2023-03-31T12:32:38;5.87;;;4.80;;
2404;SDS011;1213;43.206;27.922;2023-03-31T12:35:26;7.23;;;6.33;;
2404;SDS011;1213;43.206;27.922;2023-03-31T12:38:07;9.73;;;6.17;;
2404;SDS011;1213;43.206;27.922;2023-03-31T12:41:39;7.70;;;5.97;;
2404;SDS011;1213;43.206;27.922;2023-03-31T12:54:00;6.43;;;5.57;;
2404;SDS011;1213;43.206;27.922;2023-03-31T12:56:31;6.60;;;5.67;;
2404;SDS011;1213;43.206;27.922;2023-03-31T12:59:17;5.83;;;4.77;;
2404;SDS011;1213;43.206;27.922;2023-03-31T13:04:26;7.27;;;5.77;;
2404;SDS011;1213;43.206;27.922;2023-03-31T13:06:52;4.93;;;4.43;;
2404;SDS011;1213;43.206;27.922;2023-03-31T13:11:44;7.20;;;4.40;;
2404;SDS011;1213;43.206;27.922;2023-03-31T13:16:40;7.90;;;5.97;;
2404;SDS011;1213;43.206;27.922;2023-03-31T13:19:05;4.83;;;4.33;;
2404;SDS011;1213;43.206;27.922;2023-03-31T13:21:31;5.80;;;5.03;;
2404;SDS011;1213;43.206;27.922;2023-03-31T13:24:15;8.57;;;5.03;;
2404;SDS011;1213;43.206;27.922;2023-03-31T13:26:45;5.70;;;5.10;;
2404;SDS011;1213;43.206;27.922;2023-03-31T13:34:34;11.17;;;4.40;;
2404;SDS011;1213;43.206;27.922;2023-03-31T13:40:29;7.67;;;4.20;;
2404;SDS011;1213;43.206;27.922;2023-03-31T13:45:41;6.87;;;5.27;;
2404;SDS011;1213;43.206;27.922;2023-03-31T13:56:26;27.23;;;17.10;;
2404;SDS011;1213;43.206;27.922;2023-03-31T14:01:33;10.17;;;4.90;;
2404;SDS011;1213;43.206;27.922;2023-03-31T14:06:43;10.67;;;6.33;;
2404;SDS011;1213;43.206;27.922;2023-03-31T14:09:20;8.23;;;6.33;;
2404;SDS011;1213;43.206;27.922;2023-03-31T14:11:48;7.10;;;6.10;;
2404;SDS011;1213;43.206;27.922;2023-03-31T14:14:15;8.90;;;5.63;;
2404;SDS011;1213;43.206;27.922;2023-03-31T14:16:44;6.37;;;5.53;;
2404;SDS011;1213;43.206;27.922;2023-03-31T14:19:20;32.37;;;6.73;;
2404;SDS011;1213;43.206;27.922;2023-03-31T14:21:54;6.50;;;5.50;;
2404;SDS011;1213;43.206;27.922;2023-03-31T14:36:59;14.60;;;7.40;;
2404;SDS011;1213;43.206;27.922;2023-03-31T14:39:31;12.63;;;7.87;;
2404;SDS011;1213;43.206;27.922;2023-03-31T14:42:34;14.57;;;8.00;;
2404;SDS011;1213;43.206;27.922;2023-03-31T14:44:56;72.13;;;44.83;;
2404;SDS011;1213;43.206;27.922;2023-03-31T14:47:23;18.10;;;9.70;;
2404;SDS011;1213;43.206;27.922;2023-03-31T14:52:49;10.93;;;6.40;;
2404;SDS011;1213;43.206;27.922;2023-03-31T14:55:15;8.70;;;6.37;;
2404;SDS011;1213;43.206;27.922;2023-03-31T14:57:41;8.87;;;5.30;;
2404;SDS011;1213;43.206;27.922;2023-03-31T15:00:07;9.80;;;6.47;;
2404;SDS011;1213;43.206;27.922;2023-03-31T15:02:35;12.33;;;5.23;;
2404;SDS011;1213;43.206;27.922;2023-03-31T15:05:04;11.07;;;7.70;;
2404;SDS011;1213;43.206;27.922;2023-03-31T15:07:31;9.87;;;6.43;;
2404;SDS011;1213;43.206;27.922;2023-03-31T15:09:57;8.93;;;6.90;;
2404;SDS011;1213;43.206;27.922;2023-03-31T15:12:22;15.20;;;9.33;;
2404;SDS011;1213;43.206;27.922;2023-03-31T15:14:51;9.50;;;6.90;;
2404;SDS011;1213;43.206;27.922;2023-03-31T15:17:20;10.67;;;7.10;;
2404;SDS011;1213;43.206;27.922;2023-03-31T15:19:45;11.43;;;7.10;;
2404;SDS011;1213;43.206;27.922;2023-03-31T15:22:13;12.70;;;7.00;;
2404;SDS011;1213;43.206;27.922;2023-03-31T15:24:40;14.90;;;9.30;;
2404;SDS011;1213;43.206;27.922;2023-03-31T15:27:06;14.10;;;7.27;;
2404;SDS011;1213;43.206;27.922;2023-03-31T15:29:41;20.53;;;9.90;;
2404;SDS011;1213;43.206;27.922;2023-03-31T15:34:49;14.90;;;8.60;;
2404;SDS011;1213;43.206;27.922;2023-03-31T15:37:15;13.80;;;7.07;;
2404;SDS011;1213;43.206;27.922;2023-03-31T15:39:43;12.50;;;5.93;;
2404;SDS011;1213;43.206;27.922;2023-03-31T15:42:09;9.60;;;5.60;;
2404;SDS011;1213;43.206;27.922;2023-03-31T15:47:01;16.60;;;7.97;;
2404;SDS011;1213;43.206;27.922;2023-03-31T15:49:30;8.70;;;6.50;;
2404;SDS011;1213;43.206;27.922;2023-03-31T15:51:55;11.70;;;6.63;;
2404;SDS011;1213;43.206;27.922;2023-03-31T15:54:28;15.70;;;7.10;;
2404;SDS011;1213;43.206;27.922;2023-03-31T15:56:59;11.67;;;5.33;;
2404;SDS011;1213;43.206;27.922;2023-03-31T15:59:29;9.93;;;5.77;;
2404;SDS011;1213;43.206;27.922;2023-03-31T16:01:55;6.90;;;5.10;;
2404;SDS011;1213;43.206;27.922;2023-03-31T16:04:21;9.13;;;6.40;;
2404;SDS011;1213;43.206;27.922;2023-03-31T16:12:19;7.80;;;5.20;;
2404;SDS011;1213;43.206;27.922;2023-03-31T16:14:47;7.70;;;5.60;;
2404;SDS011;1213;43.206;27.922;2023-03-31T16:17:20;8.97;;;5.63;;
2404;SDS011;1213;43.206;27.922;2023-03-31T16:19:47;5.63;;;5.13;;
2404;SDS011;1213;43.206;27.922;2023-03-31T16:22:14;9.40;;;7.00;;
2404;SDS011;1213;43.206;27.922;2023-03-31T16:24:42;9.00;;;5.47;;
2404;SDS011;1213;43.206;27.922;2023-03-31T16:27:07;6.23;;;5.60;;
2404;SDS011;1213;43.206;27.922;2023-03-31T16:29:33;11.40;;;6.13;;
2404;SDS011;1213;43.206;27.922;2023-03-31T16:32:32;10.90;;;7.73;;
2404;SDS011;1213;43.206;27.922;2023-03-31T16:34:51;15.37;;;7.63;;
2404;SDS011;1213;43.206;27.922;2023-03-31T16:37:17;11.70;;;7.43;;
2404;SDS011;1213;43.206;27.922;2023-03-31T16:39:42;14.00;;;7.03;;
2404;SDS011;1213;43.206;27.922;2023-03-31T16:42:07;13.87;;;6.20;;
2404;SDS011;1213;43.206;27.922;2023-03-31T16:44:33;21.33;;;8.47;;
2404;SDS011;1213;43.206;27.922;2023-03-31T16:46:58;16.13;;;7.07;;
2404;SDS011;1213;43.206;27.922;2023-03-31T16:49:23;7.17;;;6.47;;
2404;SDS011;1213;43.206;27.922;2023-03-31T16:51:48;8.83;;;6.23;;
2404;SDS011;1213;43.206;27.922;2023-03-31T16:54:14;11.03;;;6.93;;
2404;SDS011;1213;43.206;27.922;2023-03-31T16:56:39;9.20;;;7.03;;
2404;SDS011;1213;43.206;27.922;2023-03-31T16:59:05;20.53;;;8.40;;
2404;SDS011;1213;43.206;27.922;2023-03-31T17:01:32;14.63;;;8.27;;
2404;SDS011;1213;43.206;27.922;2023-03-31T17:03:58;14.87;;;8.93;;
2404;SDS011;1213;43.206;27.922;2023-03-31T17:06:23;11.80;;;7.90;;
2404;SDS011;1213;43.206;27.922;2023-03-31T17:08:48;21.17;;;10.17;;
2404;SDS011;1213;43.206;27.922;2023-03-31T17:11:14;18.47;;;11.37;;
2404;SDS011;1213;43.206;27.922;2023-03-31T17:13:40;16.53;;;11.50;;
2404;SDS011;1213;43.206;27.922;2023-03-31T17:16:09;17.13;;;11.10;;
2404;SDS011;1213;43.206;27.922;2023-03-31T17:18:34;30.80;;;13.53;;
2404;SDS011;1213;43.206;27.922;2023-03-31T17:21:06;20.23;;;11.47;;
2404;SDS011;1213;43.206;27.922;2023-03-31T17:23:32;20.80;;;12.83;;
2404;SDS011;1213;43.206;27.922;2023-03-31T17:25:58;21.53;;;13.50;;
2404;SDS011;1213;43.206;27.922;2023-03-31T17:28:23;25.47;;;14.30;;
2404;SDS011;1213;43.206;27.922;2023-03-31T17:30:48;35.43;;;16.07;;
2404;SDS011;1213;43.206;27.922;2023-03-31T17:33:15;26.50;;;14.93;;
2404;SDS011;1213;43.206;27.922;2023-03-31T17:35:40;39.63;;;17.47;;
2404;SDS011;1213;43.206;27.922;2023-03-31T17:38:06;25.23;;;16.50;;
2404;SDS011;1213;43.206;27.922;2023-03-31T17:40:34;28.97;;;15.60;;
2404;SDS011;1213;43.206;27.922;2023-03-31T17:43:00;27.47;;;14.20;;
2404;SDS011;1213;43.206;27.922;2023-03-31T17:45:26;16.83;;;11.90;;
2404;SDS011;1213;43.206;27.922;2023-03-31T17:47:52;21.73;;;11.87;;